Time;durP1;ratioP1;P1;durP2;ratioP2;P2;SDS_P1;SDS_P2;PMS_P1;PMS_P2;Temp;Humidity;BMP_temperature;BMP_pressure;BME280_temperature;BME280_humidity;BME280_pressure;Samples;Min_cycle;Max_cycle;Signal;HPM_P1;HPM_P2
2023/07/03 00:00:32;;;;;;;12.45;4.70;;;;;;;15.43;73.23;100984.19;5086797;28;20020;-71
2023/07/03 00:02:58;;;;;;;12.18;3.78;;;;;;;15.45;74.83;100984.97;5082618;28;20107;-71
2023/07/03 00:05:23;;;;;;;13.60;4.68;;;;;;;15.46;73.60;100991.06;5079123;28;20033;-71
2023/07/03 00:07:49;;;;;;;11.52;3.90;;;;;;;15.45;74.53;100990.22;5086792;28;20043;-71
2023/07/03 00:10:16;;;;;;;11.73;3.95;;;;;;;15.45;74.90;100984.13;5083527;28;20016;-70
2023/07/03 00:12:42;;;;;;;15.40;4.32;;;;;;;15.43;72.81;100994.69;5087557;28;20032;-71
2023/07/03 00:15:08;;;;;;;11.63;4.35;;;;;;;15.47;72.30;100982.28;5082694;28;20064;-70
2023/07/03 00:17:33;;;;;;;16.95;5.35;;;;;;;15.45;72.91;100979.72;5080900;28;20033;-71
2023/07/03 00:19:59;;;;;;;17.15;4.63;;;;;;;15.46;74.44;100981.41;5086231;28;20035;-71
2023/07/03 00:22:24;;;;;;;13.88;4.35;;;;;;;15.42;73.60;100973.72;5080714;28;20529;-71
2023/07/03 00:24:49;;;;;;;17.27;5.28;;;;;;;15.36;74.15;100979.22;5084389;28;20159;-71
2023/07/03 00:27:15;;;;;;;13.18;4.05;;;;;;;15.36;74.02;100971.34;5083377;28;20525;-71
2023/07/03 00:29:40;;;;;;;14.45;4.25;;;;;;;15.37;75.10;100976.56;5082768;28;20178;-70
2023/07/03 00:32:06;;;;;;;15.88;4.38;;;;;;;15.37;74.91;100975.72;5083491;28;20040;-70
2023/07/03 00:34:32;;;;;;;16.45;4.35;;;;;;;15.35;74.14;100977.53;5081493;28;20052;-71
2023/07/03 00:36:58;;;;;;;15.88;4.88;;;;;;;15.38;75.61;100980.03;5084133;28;20031;-70
2023/07/03 00:39:23;;;;;;;15.23;4.35;;;;;;;15.34;74.35;100981.94;5081087;28;20070;-70
2023/07/03 00:41:49;;;;;;;13.52;4.35;;;;;;;15.31;77.23;100970.72;5084390;28;20531;-71
2023/07/03 00:44:16;;;;;;;12.20;4.13;;;;;;;15.29;77.71;100976.00;5083675;28;20032;-70
2023/07/03 00:46:44;;;;;;;17.55;4.63;;;;;;;15.27;77.37;100976.97;5081969;28;20020;-70
2023/07/03 00:49:10;;;;;;;16.58;4.35;;;;;;;15.14;77.11;100958.22;5084230;28;20057;-70
2023/07/03 00:51:44;;;;;;;15.60;4.60;;;;;;;15.26;76.94;100967.41;5081630;28;20013;-70
2023/07/03 00:54:10;;;;;;;16.42;4.13;;;;;;;15.21;77.46;100972.84;5083625;28;20032;-71
2023/07/03 00:56:35;;;;;;;16.63;4.88;;;;;;;15.19;77.05;100974.69;5082149;28;20464;-71
2023/07/03 00:59:02;;;;;;;14.00;4.45;;;;;;;15.12;76.64;100967.97;5083909;28;20472;-70
2023/07/03 01:01:34;;;;;;;15.93;4.47;;;;;;;15.09;76.78;100973.34;5078785;28;20115;-70
2023/07/03 01:04:46;;;;;;;16.27;4.88;;;;;;;15.15;77.18;100966.06;5086654;28;20551;-70
2023/07/03 01:07:15;;;;;;;17.42;4.50;;;;;;;15.16;78.06;100961.66;5043704;28;20093;-70
2023/07/03 01:09:45;;;;;;;19.02;5.35;;;;;;;15.08;79.04;100962.00;5069423;28;20043;-70
2023/07/03 01:12:11;;;;;;;16.83;4.28;;;;;;;15.12;78.70;100974.06;5082914;28;20375;-71
2023/07/03 01:14:43;;;;;;;18.40;4.70;;;;;;;15.08;79.46;100962.00;5068630;28;20025;-70
2023/07/03 01:17:10;;;;;;;16.63;4.68;;;;;;;15.05;79.40;100967.34;5082312;28;20036;-71
2023/07/03 01:19:39;;;;;;;21.70;4.97;;;;;;;15.06;78.93;100976.94;5075632;28;20469;-71
2023/07/03 01:22:30;;;;;;;19.98;5.10;;;;;;;15.00;78.26;100979.81;5081398;28;20036;-71
2023/07/03 01:25:01;;;;;;;16.52;4.18;;;;;;;14.92;80.99;100968.75;5069934;28;20033;-70
2023/07/03 01:27:31;;;;;;;20.63;4.45;;;;;;;14.84;80.75;100970.81;5086590;28;20034;-70
2023/07/03 01:29:58;;;;;;;21.58;4.60;;;;;;;14.78;81.60;100971.06;5079565;28;20037;-70
2023/07/03 01:32:28;;;;;;;14.10;4.30;;;;;;;14.75;82.46;100977.31;5086693;28;20612;-70
2023/07/03 01:34:55;;;;;;;14.20;5.30;;;;;;;14.75;82.25;100969.44;5080034;28;20024;-70
2023/07/03 01:37:25;;;;;;;20.20;5.10;;;;;;;14.74;81.92;100976.41;5085945;28;20051;-70
2023/07/03 01:39:51;;;;;;;17.17;4.70;;;;;;;14.69;83.00;100977.53;5073994;28;20021;-70
2023/07/03 01:42:17;;;;;;;19.27;5.22;;;;;;;14.56;84.40;100945.66;5082806;28;20032;-71
2023/07/03 01:44:43;;;;;;;20.00;4.95;;;;;;;14.66;85.65;100968.00;5080716;28;20028;-71
2023/07/03 01:47:12;;;;;;;18.27;5.28;;;;;;;14.55;84.64;100956.19;5085425;28;20021;-70
2023/07/03 01:49:38;;;;;;;19.35;4.70;;;;;;;14.56;84.04;100961.41;5081576;28;20028;-70
2023/07/03 01:52:06;;;;;;;16.83;4.30;;;;;;;14.54;85.42;100962.38;5083762;28;20106;-70
2023/07/03 01:54:40;;;;;;;17.65;5.07;;;;;;;14.53;84.80;100964.13;5083301;28;20032;-70
2023/07/03 01:57:07;;;;;;;17.58;4.78;;;;;;;14.47;85.37;100966.97;5082044;28;20057;-70
2023/07/03 01:59:34;;;;;;;24.15;5.38;;;;;;;14.46;85.68;100955.63;5083233;28;20078;-70
2023/07/03 02:02:19;;;;;;;19.58;5.30;;;;;;;14.50;86.34;100956.34;5082839;28;20123;-70
2023/07/03 02:04:57;;;;;;;21.95;4.72;;;;;;;14.49;87.15;100955.50;5081889;28;20514;-71
2023/07/03 02:07:27;;;;;;;16.83;5.57;;;;;;;14.46;87.36;100952.13;5085060;28;20039;-71
2023/07/03 02:09:52;;;;;;;18.75;5.07;;;;;;;14.42;87.98;100959.28;5082597;28;20123;-71
2023/07/03 02:12:18;;;;;;;17.75;4.57;;;;;;;14.38;87.43;100957.66;5068653;28;20039;-70
2023/07/03 02:14:43;;;;;;;22.52;5.20;;;;;;;14.33;89.09;100956.13;5078406;28;20038;-70
2023/07/03 02:17:09;;;;;;;20.55;4.88;;;;;;;14.25;90.57;100959.88;5081511;28;20040;-70
2023/07/03 02:19:35;;;;;;;15.85;5.40;;;;;;;14.19;90.32;100954.00;5082507;28;20068;-70
2023/07/03 02:22:00;;;;;;;26.38;5.82;;;;;;;14.14;91.61;100955.94;5083014;28;20085;-71
2023/07/03 02:24:26;;;;;;;22.52;5.35;;;;;;;14.10;91.89;100951.75;5083612;28;20032;-70
2023/07/03 02:26:52;;;;;;;19.77;4.90;;;;;;;14.08;93.05;100943.06;5086758;28;20044;-70
2023/07/03 02:29:18;;;;;;;24.08;5.47;;;;;;;14.08;93.93;100957.03;5085255;28;20468;-70
2023/07/03 02:31:44;;;;;;;26.13;5.65;;;;;;;14.01;94.04;100943.28;5085547;28;20040;-70
2023/07/03 02:34:09;;;;;;;17.67;5.40;;;;;;;14.05;94.73;100946.66;5086107;28;20075;-70
2023/07/03 02:36:38;;;;;;;18.58;5.90;;;;;;;13.98;95.53;100942.53;5085940;28;20028;-70
2023/07/03 02:39:07;;;;;;;19.13;5.22;;;;;;;13.92;96.11;100948.00;5086141;28;20024;-70
2023/07/03 02:41:33;;;;;;;19.52;5.45;;;;;;;13.90;96.23;100940.19;5084943;28;20063;-70
2023/07/03 02:43:59;;;;;;;24.42;5.05;;;;;;;13.88;96.33;100936.78;5086331;28;20032;-71
2023/07/03 02:46:24;;;;;;;21.65;5.10;;;;;;;13.88;97.11;100942.00;5084482;28;20532;-70
2023/07/03 02:48:50;;;;;;;18.20;4.95;;;;;;;13.82;98.06;100937.84;5086223;28;20134;-70
2023/07/03 02:51:15;;;;;;;18.13;5.15;;;;;;;13.80;98.43;100942.28;5087906;28;20057;-71
2023/07/03 02:53:44;;;;;;;23.50;6.00;;;;;;;13.76;99.08;100942.44;5083408;28;20032;-71
2023/07/03 02:56:09;;;;;;;23.60;5.85;;;;;;;13.70;99.34;100930.44;5089243;28;20159;-71
2023/07/03 02:58:35;;;;;;;21.63;5.22;;;;;;;13.69;99.86;100938.31;5082394;28;20103;-70
2023/07/03 03:01:01;;;;;;;23.95;6.10;;;;;;;13.64;100.00;100933.25;5090382;28;20099;-71
2023/07/03 03:03:27;;;;;;;24.85;6.25;;;;;;;13.59;100.00;100929.94;5082367;28;20024;-71
2023/07/03 03:05:52;;;;;;;26.95;5.47;;;;;;;13.46;100.00;100926.88;5091013;28;20460;-70
2023/07/03 03:08:18;;;;;;;26.77;5.43;;;;;;;13.49;100.00;100933.78;5082103;28;20089;-70
2023/07/03 03:10:43;;;;;;;21.70;5.93;;;;;;;13.48;100.00;100932.06;5075694;28;20029;-70
2023/07/03 03:13:09;;;;;;;25.13;6.47;;;;;;;13.51;100.00;100935.44;5084016;28;20070;-70
2023/07/03 03:15:35;;;;;;;19.77;5.10;;;;;;;13.50;100.00;100941.56;5086265;28;20114;-70
2023/07/03 03:18:01;;;;;;;24.88;6.45;;;;;;;13.53;100.00;100935.38;5083525;28;20059;-70
2023/07/03 03:20:27;;;;;;;25.27;6.43;;;;;;;13.55;100.00;100926.56;5088524;28;20024;-70
2023/07/03 03:22:52;;;;;;;23.60;5.43;;;;;;;13.59;100.00;100927.31;5081123;28;20040;-70
2023/07/03 03:25:17;;;;;;;21.80;6.05;;;;;;;13.62;100.00;100924.59;5089592;28;20534;-70
2023/07/03 03:27:43;;;;;;;23.65;6.93;;;;;;;13.58;100.00;100904.66;5081049;28;20503;-70
2023/07/03 03:30:09;;;;;;;24.95;5.80;;;;;;;13.68;100.00;100924.38;5089677;28;20174;-70
2023/07/03 03:32:34;;;;;;;24.92;6.07;;;;;;;13.65;100.00;100932.34;5077416;28;20027;-70
2023/07/03 03:35:00;;;;;;;24.25;5.90;;;;;;;13.63;100.00;100934.16;5086288;28;20028;-70
2023/07/03 03:37:26;;;;;;;24.70;5.93;;;;;;;13.56;100.00;100930.03;5083722;28;20359;-70
2023/07/03 03:39:51;;;;;;;23.77;6.40;;;;;;;13.47;100.00;100925.97;5085960;28;20023;-71
2023/07/03 03:42:17;;;;;;;29.55;6.28;;;;;;;13.50;100.00;100928.47;5084623;28;20043;-70
2023/07/03 03:44:42;;;;;;;22.40;5.70;;;;;;;13.49;100.00;100929.38;5084060;28;20032;-71
2023/07/03 03:47:07;;;;;;;21.92;5.63;;;;;;;13.47;100.00;100933.84;5085268;28;20030;-70
2023/07/03 03:49:32;;;;;;;21.38;6.30;;;;;;;13.52;100.00;100928.44;5083568;28;20036;-70
2023/07/03 03:51:58;;;;;;;27.88;5.40;;;;;;;13.58;100.00;100929.06;5085253;28;20027;-70
2023/07/03 03:54:26;;;;;;;24.58;5.70;;;;;;;13.59;100.00;100927.31;5084777;28;20030;-71
2023/07/03 03:56:51;;;;;;;23.25;5.57;;;;;;;13.52;100.00;100920.56;5083712;28;20066;-70
2023/07/03 03:59:17;;;;;;;26.67;6.15;;;;;;;13.53;100.00;100932.75;5085218;28;20032;-70
2023/07/03 04:01:42;;;;;;;28.00;6.30;;;;;;;13.49;100.00;100931.16;5084324;28;20109;-70
2023/07/03 04:04:08;;;;;;;23.98;5.82;;;;;;;13.42;100.00;100933.13;5084238;28;20034;-70
2023/07/03 04:06:37;;;;;;;28.30;7.07;;;;;;;13.35;100.00;100931.63;5085799;28;20022;-70
2023/07/03 04:09:03;;;;;;;27.77;6.65;;;;;;;13.28;100.00;100923.13;5083494;28;20032;-70
2023/07/03 04:11:30;;;;;;;23.15;5.85;;;;;;;13.42;100.00;100937.50;5076744;28;20069;-71
2023/07/03 04:13:55;;;;;;;24.02;7.10;;;;;;;13.48;100.00;100938.16;5074478;28;20152;-70
2023/07/03 04:16:20;;;;;;;27.77;7.40;;;;;;;13.54;100.00;100930.09;5084924;28;20046;-70
2023/07/03 04:18:46;;;;;;;28.58;6.40;;;;;;;13.50;100.00;100931.09;5083613;28;20051;-70
2023/07/03 04:21:12;;;;;;;28.02;6.50;;;;;;;13.52;100.00;100931.06;5083210;28;20085;-71
2023/07/03 04:23:37;;;;;;;23.42;6.50;;;;;;;13.54;100.00;100929.25;5084587;28;20421;-70
2023/07/03 04:26:03;;;;;;;26.02;6.70;;;;;;;13.61;100.00;100933.34;5082661;28;20017;-70
2023/07/03 04:28:28;;;;;;;24.27;6.45;;;;;;;13.75;100.00;100923.25;5084016;28;20039;-70
2023/07/03 04:30:57;;;;;;;27.60;6.47;;;;;;;13.88;100.00;100930.69;5084246;28;20182;-71
2023/07/03 04:33:22;;;;;;;25.20;6.22;;;;;;;13.90;100.00;100934.09;5082614;28;20044;-71
2023/07/03 04:35:48;;;;;;;25.00;5.90;;;;;;;13.85;100.00;100934.25;5087075;28;20137;-70
2023/07/03 04:38:18;;;;;;;23.98;7.07;;;;;;;13.79;100.00;100937.09;5080150;28;20048;-71
2023/07/03 04:40:44;;;;;;;23.60;6.18;;;;;;;13.77;100.00;100939.78;5073679;28;20104;-70
2023/07/03 04:43:10;;;;;;;26.85;6.20;;;;;;;13.79;100.00;100937.09;5081255;28;20059;-70
2023/07/03 04:45:44;;;;;;;21.70;6.28;;;;;;;13.87;100.00;100936.84;5087957;28;20036;-71
2023/07/03 04:48:09;;;;;;;21.90;6.57;;;;;;;14.01;100.00;100934.56;5080919;28;20029;-70
2023/07/03 04:50:34;;;;;;;21.35;6.72;;;;;;;14.19;100.00;100935.66;5088405;28;20036;-71
2023/07/03 04:53:00;;;;;;;25.20;6.18;;;;;;;14.27;100.00;100936.22;5079874;28;20029;-71
2023/07/03 04:55:26;;;;;;;18.48;5.85;;;;;;;14.31;100.00;100944.84;5087673;28;20472;-71
2023/07/03 04:57:51;;;;;;;28.33;6.80;;;;;;;14.25;100.00;100938.91;5081951;28;20026;-71
2023/07/03 05:00:19;;;;;;;19.88;6.05;;;;;;;14.21;100.00;100944.31;5085369;28;20050;-71
2023/07/03 05:02:46;;;;;;;24.80;6.47;;;;;;;14.21;100.00;100947.78;5083102;28;20024;-71
2023/07/03 05:05:13;;;;;;;23.42;6.90;;;;;;;14.29;100.00;100943.13;5084663;28;20024;-71
2023/07/03 05:07:39;;;;;;;20.80;6.53;;;;;;;14.37;100.00;100944.63;5082816;28;20023;-71
2023/07/03 05:10:06;;;;;;;22.88;7.28;;;;;;;14.46;100.00;100954.75;5080916;28;20414;-71
2023/07/03 05:12:31;;;;;;;16.17;5.45;;;;;;;14.55;100.00;100957.06;5074428;28;20029;-71
2023/07/03 05:14:56;;;;;;;25.00;7.13;;;;;;;14.60;100.00;100952.50;5087121;28;20029;-71
2023/07/03 05:17:23;;;;;;;23.85;5.93;;;;;;;14.66;100.00;100965.38;5080801;28;20058;-71
2023/07/03 05:19:48;;;;;;;18.35;6.20;;;;;;;14.75;100.00;100956.31;5086761;28;20039;-71
2023/07/03 05:22:14;;;;;;;22.08;6.68;;;;;;;14.75;100.00;100951.06;5080706;28;20110;-71
2023/07/03 05:24:39;;;;;;;18.40;5.88;;;;;;;14.72;100.00;100941.53;5084654;28;20020;-71
2023/07/03 05:27:05;;;;;;;24.10;6.35;;;;;;;14.95;100.00;100964.25;5083560;28;20024;-71
2023/07/03 05:29:32;;;;;;;25.73;6.38;;;;;;;15.03;100.00;100952.56;5082110;28;20028;-71
2023/07/03 05:31:59;;;;;;;23.35;6.97;;;;;;;15.16;100.00;100973.03;5083840;28;20361;-71
2023/07/03 05:34:24;;;;;;;21.90;5.80;;;;;;;15.28;100.00;100966.44;5081570;28;20036;-71
2023/07/03 05:36:50;;;;;;;20.45;5.60;;;;;;;15.42;100.00;100968.47;5083730;28;20357;-71
2023/07/03 05:39:15;;;;;;;23.13;6.60;;;;;;;15.44;100.00;100969.28;5085160;28;20433;-71
2023/07/03 05:41:40;;;;;;;23.17;6.28;;;;;;;15.41;100.00;100964.16;5082154;28;20020;-71
2023/07/03 05:44:06;;;;;;;23.83;6.32;;;;;;;15.42;100.00;100971.09;5083699;28;20111;-71
2023/07/03 05:46:34;;;;;;;26.77;6.32;;;;;;;15.49;100.00;100964.66;5082595;28;20024;-71
2023/07/03 05:48:59;;;;;;;29.08;6.82;;;;;;;15.55;100.00;100979.34;5082803;28;20032;-71
2023/07/03 05:51:25;;;;;;;29.88;6.75;;;;;;;15.58;100.00;100973.94;5083261;28;20043;-71
2023/07/03 05:53:50;;;;;;;22.13;6.30;;;;;;;15.64;100.00;100979.81;5083034;28;20046;-71
2023/07/03 05:56:16;;;;;;;27.52;6.30;;;;;;;15.66;100.00;100982.34;5084905;28;20025;-71
2023/07/03 05:58:41;;;;;;;21.48;6.32;;;;;;;15.63;100.00;100982.47;5082645;28;20036;-71
2023/07/03 06:01:07;;;;;;;17.38;6.00;;;;;;;15.67;100.00;100976.22;5091797;28;20444;-71
2023/07/03 06:03:32;;;;;;;26.38;6.55;;;;;;;15.77;100.00;100979.31;5082995;28;20013;-71
2023/07/03 06:05:58;;;;;;;26.88;6.63;;;;;;;15.88;100.00;100984.97;5085956;28;20040;-71
2023/07/03 06:08:23;;;;;;;19.92;6.30;;;;;;;15.96;100.00;100980.22;5087344;28;20033;-71
2023/07/03 06:10:49;;;;;;;21.52;6.93;;;;;;;16.07;99.88;100980.59;5080089;28;20078;-71
2023/07/03 06:13:15;;;;;;;21.40;5.63;;;;;;;16.12;99.59;100970.75;5086824;28;20047;-71
2023/07/03 06:15:41;;;;;;;21.17;6.10;;;;;;;16.20;98.99;100973.03;5087087;28;20175;-71
2023/07/03 06:18:06;;;;;;;19.90;6.35;;;;;;;16.27;97.85;100978.88;5084695;28;20029;-71
2023/07/03 06:20:33;;;;;;;21.67;5.50;;;;;;;16.37;97.63;100985.41;5088602;28;20013;-71
2023/07/03 06:22:58;;;;;;;18.45;5.40;;;;;;;16.48;98.09;100985.81;5077010;28;20043;-71
2023/07/03 06:25:24;;;;;;;25.05;5.45;;;;;;;16.62;97.88;100975.47;5090048;28;20020;-71
2023/07/03 06:27:49;;;;;;;21.10;6.05;;;;;;;16.69;95.38;100980.47;5083631;28;20469;-71
2023/07/03 06:30:14;;;;;;;22.05;5.78;;;;;;;16.75;93.58;100983.69;5090822;28;20399;-71
2023/07/03 06:32:40;;;;;;;20.25;5.78;;;;;;;16.78;92.97;100986.19;5082226;28;20035;-70
2023/07/03 06:35:06;;;;;;;20.20;5.70;;;;;;;16.87;95.21;100981.41;5090385;28;20020;-71
2023/07/03 06:37:31;;;;;;;20.30;6.00;;;;;;;16.94;96.25;100983.69;5082954;28;20032;-71
2023/07/03 06:39:57;;;;;;;24.23;6.18;;;;;;;17.00;93.62;100991.28;5077862;28;20130;-71
2023/07/03 06:42:22;;;;;;;23.52;6.07;;;;;;;17.07;92.66;100987.44;5082604;28;20035;-71
2023/07/03 06:44:48;;;;;;;22.67;6.05;;;;;;;17.13;90.63;100990.69;5080893;28;20093;-72
2023/07/03 06:47:13;;;;;;;21.73;5.53;;;;;;;17.14;91.50;100980.09;5086330;28;20031;-71
2023/07/03 06:49:38;;;;;;;20.30;6.20;;;;;;;17.27;89.59;100985.63;5076514;28;20048;-71
2023/07/03 06:52:04;;;;;;;22.30;5.28;;;;;;;17.29;86.87;100975.84;5085437;28;20555;-71
2023/07/03 06:54:29;;;;;;;19.00;5.55;;;;;;;17.24;88.93;100967.31;5086248;28;20030;-71
2023/07/03 06:56:54;;;;;;;18.20;5.45;;;;;;;17.26;85.89;100968.94;5086210;28;20070;-71
2023/07/03 06:59:20;;;;;;;25.15;6.00;;;;;;;17.19;85.47;100964.03;5088118;28;20379;-72
2023/07/03 07:01:45;;;;;;;19.67;4.93;;;;;;;17.24;86.12;100972.59;5079309;28;20104;-72
2023/07/03 07:04:11;;;;;;;16.77;5.30;;;;;;;17.25;88.39;100967.22;5075861;28;20028;-72
2023/07/03 07:06:38;;;;;;;21.50;5.70;;;;;;;17.46;87.62;100982.91;5076414;28;20047;-72
2023/07/03 07:09:04;;;;;;;19.27;5.55;;;;;;;17.49;87.62;100990.66;5079572;28;20053;-71
2023/07/03 07:11:32;;;;;;;17.45;5.03;;;;;;;17.64;85.98;100991.69;5085113;28;20110;-72
2023/07/03 07:13:59;;;;;;;19.90;5.20;;;;;;;17.82;84.36;100990.78;5074675;28;20025;-72
2023/07/03 07:16:28;;;;;;;16.65;4.68;;;;;;;18.05;83.48;100989.59;5070029;28;20029;-72
2023/07/03 07:18:55;;;;;;;28.98;5.88;;;;;;;17.88;81.75;100990.44;5078934;28;20036;-72
2023/07/03 07:21:21;;;;;;;23.75;5.10;;;;;;;17.59;80.41;100989.25;5077501;28;20051;-72
2023/07/03 07:23:58;;;;;;;19.80;4.95;;;;;;;17.31;84.04;100985.38;5077501;28;20048;-72
2023/07/03 07:26:33;;;;;;;21.38;5.90;;;;;;;17.50;82.49;100995.03;5083025;28;20024;-72
2023/07/03 07:28:59;;;;;;;22.23;5.72;;;;;;;17.71;79.53;100987.78;5082222;28;20020;-72
2023/07/03 07:31:26;;;;;;;24.77;5.82;;;;;;;17.78;82.75;101002.41;5083293;28;20059;-72
2023/07/03 07:33:52;;;;;;;15.27;5.05;;;;;;;17.67;78.67;100996.81;5078338;28;20119;-72
2023/07/03 07:36:20;;;;;;;18.88;5.78;;;;;;;17.41;79.45;100984.94;5082271;28;20103;-72
2023/07/03 07:38:45;;;;;;;16.00;4.75;;;;;;;17.29;82.82;101004.81;5084425;28;20024;-72
2023/07/03 07:41:11;;;;;;;17.30;6.05;;;;;;;17.28;83.49;101003.97;5082384;28;20025;-72
2023/07/03 07:43:37;;;;;;;16.98;5.50;;;;;;;17.60;82.65;101005.97;5079663;28;20107;-71
2023/07/03 07:46:03;;;;;;;15.93;5.43;;;;;;;18.10;78.92;100992.81;5086411;28;20078;-71
2023/07/03 07:48:28;;;;;;;15.85;5.00;;;;;;;18.58;76.75;101001.72;5086078;28;20082;-72
2023/07/03 07:50:54;;;;;;;17.50;4.88;;;;;;;18.66;74.74;100999.50;5089187;28;20709;-73
2023/07/03 07:53:19;;;;;;;16.63;4.75;;;;;;;18.65;72.47;101002.22;5076652;28;20043;-72
2023/07/03 07:55:45;;;;;;;17.83;4.43;;;;;;;18.65;74.19;101018.91;5075612;28;20016;-72
2023/07/03 07:58:10;;;;;;;15.73;4.80;;;;;;;18.63;72.79;101019.94;5082951;28;20519;-72
2023/07/03 08:00:35;;;;;;;13.25;4.95;;;;;;;18.62;72.48;101028.81;5079622;28;20414;-72
2023/07/03 08:03:01;;;;;;;16.73;4.60;;;;;;;18.71;72.06;101023.03;5074955;28;21856;-72
2023/07/03 08:05:26;;;;;;;16.73;4.63;;;;;;;18.70;64.83;101032.75;5076501;28;20024;-73
2023/07/03 08:07:52;;;;;;;20.98;4.63;;;;;;;18.64;67.02;101024.31;5083296;28;20024;-72
2023/07/03 08:10:18;;;;;;;20.70;4.82;;;;;;;18.62;64.71;101023.53;5080171;28;20077;-72
2023/07/03 08:12:45;;;;;;;15.55;4.63;;;;;;;18.62;65.31;101034.09;5081453;28;20422;-72
2023/07/03 08:15:10;;;;;;;15.30;4.57;;;;;;;18.63;65.15;101033.13;5082179;28;20024;-71
2023/07/03 08:17:36;;;;;;;17.58;4.43;;;;;;;18.65;67.13;101034.75;5082216;28;20028;-72
2023/07/03 08:20:01;;;;;;;16.30;4.28;;;;;;;18.60;65.86;101031.50;5072780;28;20028;-71
2023/07/03 08:22:27;;;;;;;16.67;4.57;;;;;;;18.59;65.90;101034.25;5081569;28;20111;-72
2023/07/03 08:24:53;;;;;;;23.70;4.60;;;;;;;18.55;64.00;101040.63;5081188;28;20020;-72
2023/07/03 08:27:18;;;;;;;21.63;4.20;;;;;;;18.56;65.54;101039.69;5081663;28;20028;-71
2023/07/03 08:29:46;;;;;;;11.93;3.80;;;;;;;18.66;64.95;101047.03;5075919;28;20090;-72
2023/07/03 08:32:12;;;;;;;15.75;4.88;;;;;;;18.85;65.93;101040.78;5084801;28;20107;-72
2023/07/03 08:34:37;;;;;;;12.95;4.35;;;;;;;19.12;63.23;101043.69;5083729;28;20099;-72
2023/07/03 08:37:03;;;;;;;14.63;4.45;;;;;;;19.36;61.19;101042.31;5084182;28;20036;-72
2023/07/03 08:39:28;;;;;;;15.80;4.70;;;;;;;19.44;60.29;101027.78;5081438;28;20036;-72
2023/07/03 08:42:14;;;;;;;15.90;4.32;;;;;;;19.61;60.28;101041.72;5082648;28;20028;-71
2023/07/03 08:44:40;;;;;;;14.80;4.13;;;;;;;19.66;63.34;101035.38;5071750;28;20021;-71
2023/07/03 08:47:09;;;;;;;13.20;4.45;;;;;;;19.68;63.34;101036.97;5074807;28;20502;-71
2023/07/03 08:49:36;;;;;;;15.77;5.15;;;;;;;19.82;60.30;101042.31;5076268;28;20036;-71
2023/07/03 08:52:03;;;;;;;16.00;4.65;;;;;;;20.02;61.25;101032.34;5072341;28;20027;-71
2023/07/03 08:54:32;;;;;;;16.70;4.05;;;;;;;20.00;61.73;101032.41;5074363;28;20029;-71
2023/07/03 08:56:59;;;;;;;18.30;4.20;;;;;;;19.67;60.46;101032.63;5063311;28;20103;-71
2023/07/03 08:59:25;;;;;;;19.33;4.63;;;;;;;19.37;61.71;101044.00;5070337;28;20034;-71
2023/07/03 09:02:00;;;;;;;15.25;4.57;;;;;;;19.24;60.38;101037.72;5079193;28;20020;-71
2023/07/03 09:04:57;;;;;;;19.80;4.68;;;;;;;19.36;60.94;101042.31;5073739;28;20028;-71
2023/07/03 09:07:33;;;;;;;12.30;4.95;;;;;;;19.49;61.75;101041.59;5078081;28;20028;-71
2023/07/03 09:10:17;;;;;;;10.60;4.47;;;;;;;19.48;58.82;101040.75;5076436;28;20111;-71
2023/07/03 09:12:51;;;;;;;14.32;4.60;;;;;;;19.53;59.80;101033.41;5066717;28;20184;-71
2023/07/03 09:15:35;;;;;;;25.90;6.60;;;;;;;19.79;59.65;101039.00;5078668;28;20016;-71
2023/07/03 09:18:04;;;;;;;13.98;4.97;;;;;;;19.98;58.78;101033.44;5067791;28;20035;-71
2023/07/03 09:20:31;;;;;;;16.35;5.32;;;;;;;20.15;57.22;101038.59;5076272;28;20024;-71
2023/07/03 09:23:05;;;;;;;16.38;5.32;;;;;;;20.38;58.01;101031.06;5076133;28;20048;-71
2023/07/03 09:25:40;;;;;;;12.57;4.22;;;;;;;20.52;53.85;101034.56;5063990;28;20388;-71
2023/07/03 09:28:09;;;;;;;15.55;5.35;;;;;;;20.33;54.80;101031.31;5072099;28;20036;-70
2023/07/03 09:30:35;;;;;;;14.77;4.70;;;;;;;20.18;57.65;101030.47;5080216;28;20076;-71
2023/07/03 09:33:00;;;;;;;15.70;5.40;;;;;;;20.08;59.44;101034.63;5072375;28;20021;-71
2023/07/03 09:35:35;;;;;;;15.48;5.43;;;;;;;20.00;59.52;101031.56;5084229;28;20036;-71
2023/07/03 09:38:01;;;;;;;15.85;5.90;;;;;;;19.93;60.38;101030.25;5086130;28;20024;-71
2023/07/03 09:40:31;;;;;;;13.23;4.82;;;;;;;20.01;62.07;101041.22;5080225;28;20111;-71
2023/07/03 09:42:56;;;;;;;19.38;5.13;;;;;;;20.13;57.22;101032.53;5070696;28;20480;-71
2023/07/03 09:45:28;;;;;;;13.88;4.38;;;;;;;20.34;55.64;101036.53;5083390;28;20046;-71
2023/07/03 09:47:57;;;;;;;13.70;5.25;;;;;;;20.71;56.51;101039.59;5083681;28;20036;-71
2023/07/03 09:50:34;;;;;;;16.48;5.57;;;;;;;21.08;52.92;101031.94;5091841;28;20039;-71
2023/07/03 09:53:01;;;;;;;15.98;4.90;;;;;;;21.40;53.91;101047.59;5079420;28;20020;-71
2023/07/03 09:55:30;;;;;;;14.85;4.95;;;;;;;21.24;52.49;101032.63;5085813;28;20475;-71
2023/07/03 09:57:55;;;;;;;19.50;5.00;;;;;;;20.85;51.99;101043.16;5081706;28;20020;-71
2023/07/03 10:00:24;;;;;;;17.55;5.28;;;;;;;20.65;52.22;101044.41;5079298;28;20020;-71
2023/07/03 10:02:57;;;;;;;14.70;4.95;;;;;;;20.62;51.45;101044.59;5088538;28;20032;-71
2023/07/03 10:05:33;;;;;;;16.50;5.03;;;;;;;20.87;51.87;101049.22;5083145;28;20035;-71
2023/07/03 10:08:06;;;;;;;19.70;5.28;;;;;;;20.77;50.05;101049.78;5091070;28;20039;-71
2023/07/03 10:10:33;;;;;;;21.23;5.22;;;;;;;20.83;50.79;101047.69;5071779;28;20146;-71
2023/07/03 10:13:10;;;;;;;12.27;4.97;;;;;;;20.80;51.35;101040.81;5081332;28;20071;-71
2023/07/03 10:15:39;;;;;;;12.80;4.90;;;;;;;20.94;48.41;101050.53;5076783;28;20043;-71
2023/07/03 10:18:07;;;;;;;11.45;4.68;;;;;;;21.16;49.31;101042.91;5080259;28;20028;-71
2023/07/03 10:20:36;;;;;;;29.00;5.72;;;;;;;21.36;49.00;101062.84;5074100;28;20468;-71
2023/07/03 10:23:07;;;;;;;24.25;5.43;;;;;;;21.44;48.71;101059.69;5074338;28;20024;-71
2023/07/03 10:25:37;;;;;;;15.82;5.00;;;;;;;21.94;50.31;101053.69;5075651;28;20070;-71
2023/07/03 10:28:08;;;;;;;19.95;4.82;;;;;;;21.83;47.73;101056.19;5075708;28;20036;-71
2023/07/03 10:30:37;;;;;;;11.52;4.57;;;;;;;21.40;46.12;101058.19;5071425;28;20051;-71
2023/07/03 10:33:11;;;;;;;14.32;4.80;;;;;;;21.01;48.99;101062.44;5076179;28;20029;-71
2023/07/03 10:35:41;;;;;;;14.43;4.57;;;;;;;21.13;50.59;101066.97;5069538;28;20050;-71
2023/07/03 10:38:25;;;;;;;13.15;4.95;;;;;;;21.45;47.65;101064.91;5072379;28;20017;-71
2023/07/03 10:41:03;;;;;;;9.80;4.30;;;;;;;21.41;47.12;101059.88;5076708;28;20028;-71
2023/07/03 10:43:32;;;;;;;12.85;4.80;;;;;;;20.92;46.00;101063.00;5080006;28;20086;-71
2023/07/03 10:45:59;;;;;;;14.30;4.72;;;;;;;20.54;44.77;101069.78;5081952;28;20052;-71
2023/07/03 10:48:30;;;;;;;15.50;4.55;;;;;;;20.43;48.00;101073.97;5079094;28;20025;-71
2023/07/03 10:51:12;;;;;;;16.55;4.50;;;;;;;20.53;46.66;101068.03;5082835;28;20032;-71
2023/07/03 10:53:53;;;;;;;18.38;5.55;;;;;;;20.86;47.18;101066.91;5078170;28;20115;-71
2023/07/03 10:56:32;;;;;;;22.35;4.60;;;;;;;21.35;46.88;101063.78;5074473;28;20067;-70
2023/07/03 10:59:14;;;;;;;15.10;4.18;;;;;;;21.60;45.19;101060.38;5076893;28;20031;-70
2023/07/03 11:01:48;;;;;;;13.65;3.45;;;;;;;21.48;45.92;101071.78;5076297;28;20510;-70
2023/07/03 11:04:17;;;;;;;11.07;3.60;;;;;;;21.68;43.19;101060.75;5085974;28;20491;-70
2023/07/03 11:07:01;;;;;;;21.63;4.75;;;;;;;22.06;43.26;101059.94;5074000;28;20138;-70
2023/07/03 11:09:39;;;;;;;18.77;4.88;;;;;;;22.25;42.73;101053.41;5075360;28;20475;-71
2023/07/03 11:12:30;;;;;;;9.43;3.85;;;;;;;22.29;46.59;101055.75;5061458;28;20064;-71
2023/07/03 11:15:22;;;;;;;16.55;3.88;;;;;;;23.09;42.93;101058.94;5081273;28;20036;-71
2023/07/03 11:18:21;;;;;;;17.00;4.18;;;;;;;23.77;41.08;101065.47;5082999;28;20126;-71